sensor_id;sensor_type;location;lat;lon;timestamp;P1;durP1;ratioP1;P2;durP2;ratioP2
4686;SDS011;2357;47.316;-1.348;2023-05-16T00:00:03;5.33;;;1.60;;
4686;SDS011;2357;47.316;-1.348;2023-05-16T00:02:33;4.60;;;1.80;;
4686;SDS011;2357;47.316;-1.348;2023-05-16T00:05:01;5.80;;;1.33;;
4686;SDS011;2357;47.316;-1.348;2023-05-16T00:07:28;4.50;;;1.80;;
4686;SDS011;2357;47.316;-1.348;2023-05-16T00:09:55;2.97;;;1.50;;
4686;SDS011;2357;47.316;-1.348;2023-05-16T00:12:21;2.83;;;1.17;;
4686;SDS011;2357;47.316;-1.348;2023-05-16T00:14:47;5.90;;;1.63;;
4686;SDS011;2357;47.316;-1.348;2023-05-16T00:17:14;18.80;;;5.23;;
4686;SDS011;2357;47.316;-1.348;2023-05-16T00:19:43;3.83;;;2.60;;
4686;SDS011;2357;47.316;-1.348;2023-05-16T00:22:12;10.47;;;2.63;;
4686;SDS011;2357;47.316;-1.348;2023-05-16T00:24:39;3.00;;;1.47;;
4686;SDS011;2357;47.316;-1.348;2023-05-16T00:27:05;4.10;;;1.87;;
4686;SDS011;2357;47.316;-1.348;2023-05-16T00:29:31;5.23;;;2.50;;
4686;SDS011;2357;47.316;-1.348;2023-05-16T00:32:00;6.13;;;2.00;;
4686;SDS011;2357;47.316;-1.348;2023-05-16T00:34:25;6.03;;;1.30;;
4686;SDS011;2357;47.316;-1.348;2023-05-16T00:36:51;9.67;;;1.40;;
4686;SDS011;2357;47.316;-1.348;2023-05-16T00:39:17;3.60;;;1.33;;
4686;SDS011;2357;47.316;-1.348;2023-05-16T00:41:43;4.87;;;2.03;;
4686;SDS011;2357;47.316;-1.348;2023-05-16T00:44:10;6.30;;;1.40;;
4686;SDS011;2357;47.316;-1.348;2023-05-16T00:46:36;6.67;;;1.33;;
4686;SDS011;2357;47.316;-1.348;2023-05-16T00:49:01;8.67;;;1.73;;
4686;SDS011;2357;47.316;-1.348;2023-05-16T00:51:28;7.40;;;1.63;;
4686;SDS011;2357;47.316;-1.348;2023-05-16T00:53:54;1.17;;;1.07;;
4686;SDS011;2357;47.316;-1.348;2023-05-16T00:56:21;5.20;;;1.70;;
4686;SDS011;2357;47.316;-1.348;2023-05-16T00:58:47;5.13;;;1.37;;
4686;SDS011;2357;47.316;-1.348;2023-05-16T01:01:14;4.57;;;1.80;;
4686;SDS011;2357;47.316;-1.348;2023-05-16T01:03:39;3.97;;;2.07;;
4686;SDS011;2357;47.316;-1.348;2023-05-16T01:06:06;1.53;;;1.43;;
4686;SDS011;2357;47.316;-1.348;2023-05-16T01:08:32;1.83;;;1.47;;
4686;SDS011;2357;47.316;-1.348;2023-05-16T01:26:43;12.83;;;1.67;;
4686;SDS011;2357;47.316;-1.348;2023-05-16T01:29:10;3.80;;;1.60;;
4686;SDS011;2357;47.316;-1.348;2023-05-16T01:31:37;4.30;;;1.20;;
4686;SDS011;2357;47.316;-1.348;2023-05-16T01:34:02;8.50;;;1.70;;
4686;SDS011;2357;47.316;-1.348;2023-05-16T01:36:51;4.07;;;1.70;;
4686;SDS011;2357;47.316;-1.348;2023-05-16T01:39:27;2.60;;;1.23;;
4686;SDS011;2357;47.316;-1.348;2023-05-16T01:42:06;4.53;;;1.27;;
4686;SDS011;2357;47.316;-1.348;2023-05-16T01:44:40;1.93;;;1.63;;
4686;SDS011;2357;47.316;-1.348;2023-05-16T01:47:11;7.63;;;1.77;;
4686;SDS011;2357;47.316;-1.348;2023-05-16T01:49:40;5.00;;;1.93;;
4686;SDS011;2357;47.316;-1.348;2023-05-16T01:52:12;7.47;;;1.77;;
4686;SDS011;2357;47.316;-1.348;2023-05-16T01:54:44;5.83;;;1.80;;
4686;SDS011;2357;47.316;-1.348;2023-05-16T01:57:11;7.40;;;1.40;;
4686;SDS011;2357;47.316;-1.348;2023-05-16T01:59:37;5.70;;;1.27;;
4686;SDS011;2357;47.316;-1.348;2023-05-16T02:02:04;4.00;;;1.60;;
4686;SDS011;2357;47.316;-1.348;2023-05-16T02:04:29;5.20;;;1.63;;
4686;SDS011;2357;47.316;-1.348;2023-05-16T02:06:55;6.10;;;1.47;;
4686;SDS011;2357;47.316;-1.348;2023-05-16T02:09:21;6.63;;;1.90;;
4686;SDS011;2357;47.316;-1.348;2023-05-16T02:11:47;2.83;;;1.40;;
4686;SDS011;2357;47.316;-1.348;2023-05-16T02:14:12;8.13;;;2.07;;
4686;SDS011;2357;47.316;-1.348;2023-05-16T02:16:38;8.53;;;2.07;;
4686;SDS011;2357;47.316;-1.348;2023-05-16T02:19:04;4.73;;;1.37;;
4686;SDS011;2357;47.316;-1.348;2023-05-16T02:21:30;4.77;;;1.47;;
4686;SDS011;2357;47.316;-1.348;2023-05-16T02:23:55;6.97;;;1.77;;
4686;SDS011;2357;47.316;-1.348;2023-05-16T02:26:21;1.53;;;1.20;;
4686;SDS011;2357;47.316;-1.348;2023-05-16T02:28:46;4.20;;;1.70;;
4686;SDS011;2357;47.316;-1.348;2023-05-16T02:31:24;3.03;;;1.33;;
4686;SDS011;2357;47.316;-1.348;2023-05-16T02:33:53;2.77;;;1.30;;
4686;SDS011;2357;47.316;-1.348;2023-05-16T02:36:18;2.57;;;1.70;;
4686;SDS011;2357;47.316;-1.348;2023-05-16T02:38:45;5.60;;;1.63;;
4686;SDS011;2357;47.316;-1.348;2023-05-16T02:41:11;8.07;;;1.80;;
4686;SDS011;2357;47.316;-1.348;2023-05-16T02:43:36;3.17;;;1.57;;
4686;SDS011;2357;47.316;-1.348;2023-05-16T02:46:18;3.73;;;1.80;;
4686;SDS011;2357;47.316;-1.348;2023-05-16T02:48:46;2.73;;;2.13;;
4686;SDS011;2357;47.316;-1.348;2023-05-16T02:51:12;5.10;;;2.10;;
4686;SDS011;2357;47.316;-1.348;2023-05-16T02:53:38;5.70;;;2.27;;
4686;SDS011;2357;47.316;-1.348;2023-05-16T02:56:04;7.53;;;2.00;;
4686;SDS011;2357;47.316;-1.348;2023-05-16T02:58:31;10.83;;;2.00;;
4686;SDS011;2357;47.316;-1.348;2023-05-16T03:00:57;4.57;;;2.27;;
4686;SDS011;2357;47.316;-1.348;2023-05-16T03:03:22;3.03;;;1.90;;
4686;SDS011;2357;47.316;-1.348;2023-05-16T03:05:48;7.03;;;1.83;;
4686;SDS011;2357;47.316;-1.348;2023-05-16T03:08:14;4.80;;;1.70;;
4686;SDS011;2357;47.316;-1.348;2023-05-16T03:10:40;5.33;;;2.10;;
4686;SDS011;2357;47.316;-1.348;2023-05-16T03:13:05;2.20;;;1.57;;
4686;SDS011;2357;47.316;-1.348;2023-05-16T03:15:31;3.20;;;1.70;;
4686;SDS011;2357;47.316;-1.348;2023-05-16T03:17:56;3.13;;;2.10;;
4686;SDS011;2357;47.316;-1.348;2023-05-16T03:20:22;4.80;;;1.73;;
4686;SDS011;2357;47.316;-1.348;2023-05-16T03:22:48;2.47;;;1.70;;
4686;SDS011;2357;47.316;-1.348;2023-05-16T03:25:13;10.23;;;1.90;;
4686;SDS011;2357;47.316;-1.348;2023-05-16T03:27:39;6.83;;;2.30;;
4686;SDS011;2357;47.316;-1.348;2023-05-16T03:30:05;3.33;;;1.63;;
4686;SDS011;2357;47.316;-1.348;2023-05-16T03:32:31;4.27;;;1.90;;
4686;SDS011;2357;47.316;-1.348;2023-05-16T03:34:57;2.40;;;1.97;;
4686;SDS011;2357;47.316;-1.348;2023-05-16T03:37:23;7.03;;;2.30;;
4686;SDS011;2357;47.316;-1.348;2023-05-16T03:39:49;6.70;;;1.60;;
4686;SDS011;2357;47.316;-1.348;2023-05-16T03:42:14;14.03;;;2.23;;
4686;SDS011;2357;47.316;-1.348;2023-05-16T03:44:42;4.60;;;1.67;;
4686;SDS011;2357;47.316;-1.348;2023-05-16T03:47:08;5.73;;;1.60;;
4686;SDS011;2357;47.316;-1.348;2023-05-16T03:49:33;5.13;;;2.80;;
4686;SDS011;2357;47.316;-1.348;2023-05-16T03:52:00;8.43;;;1.57;;
4686;SDS011;2357;47.316;-1.348;2023-05-16T03:54:27;6.67;;;1.50;;
4686;SDS011;2357;47.316;-1.348;2023-05-16T03:56:53;3.83;;;1.80;;
4686;SDS011;2357;47.316;-1.348;2023-05-16T03:59:19;3.60;;;1.90;;
4686;SDS011;2357;47.316;-1.348;2023-05-16T04:01:45;5.30;;;1.83;;
4686;SDS011;2357;47.316;-1.348;2023-05-16T04:04:11;14.83;;;2.50;;
4686;SDS011;2357;47.316;-1.348;2023-05-16T04:06:38;3.10;;;1.70;;
4686;SDS011;2357;47.316;-1.348;2023-05-16T04:09:03;1.50;;;1.40;;
4686;SDS011;2357;47.316;-1.348;2023-05-16T04:11:30;6.70;;;2.30;;
4686;SDS011;2357;47.316;-1.348;2023-05-16T04:13:56;10.40;;;2.20;;
4686;SDS011;2357;47.316;-1.348;2023-05-16T04:16:22;3.33;;;1.20;;
4686;SDS011;2357;47.316;-1.348;2023-05-16T04:18:48;7.97;;;2.57;;
4686;SDS011;2357;47.316;-1.348;2023-05-16T04:21:14;3.17;;;1.47;;
4686;SDS011;2357;47.316;-1.348;2023-05-16T04:23:40;13.97;;;2.30;;
4686;SDS011;2357;47.316;-1.348;2023-05-16T04:26:06;4.77;;;1.70;;
4686;SDS011;2357;47.316;-1.348;2023-05-16T04:28:31;2.23;;;2.00;;
4686;SDS011;2357;47.316;-1.348;2023-05-16T04:30:57;4.90;;;1.30;;
4686;SDS011;2357;47.316;-1.348;2023-05-16T04:33:23;3.67;;;1.60;;
4686;SDS011;2357;47.316;-1.348;2023-05-16T04:35:48;3.07;;;2.07;;
4686;SDS011;2357;47.316;-1.348;2023-05-16T04:38:14;6.13;;;1.63;;
4686;SDS011;2357;47.316;-1.348;2023-05-16T04:40:40;5.60;;;2.20;;
4686;SDS011;2357;47.316;-1.348;2023-05-16T04:43:06;2.30;;;1.77;;
4686;SDS011;2357;47.316;-1.348;2023-05-16T04:45:32;5.43;;;2.00;;
4686;SDS011;2357;47.316;-1.348;2023-05-16T04:47:57;12.03;;;2.00;;
4686;SDS011;2357;47.316;-1.348;2023-05-16T04:50:23;5.37;;;2.37;;
4686;SDS011;2357;47.316;-1.348;2023-05-16T04:52:49;3.00;;;1.80;;
4686;SDS011;2357;47.316;-1.348;2023-05-16T04:55:14;3.43;;;1.97;;
4686;SDS011;2357;47.316;-1.348;2023-05-16T04:57:40;6.13;;;2.10;;
4686;SDS011;2357;47.316;-1.348;2023-05-16T05:00:06;2.70;;;2.10;;
4686;SDS011;2357;47.316;-1.348;2023-05-16T05:02:34;2.40;;;1.50;;
4686;SDS011;2357;47.316;-1.348;2023-05-16T05:05:00;3.23;;;2.03;;
4686;SDS011;2357;47.316;-1.348;2023-05-16T05:07:25;15.07;;;2.50;;
4686;SDS011;2357;47.316;-1.348;2023-05-16T05:09:53;5.70;;;2.00;;
4686;SDS011;2357;47.316;-1.348;2023-05-16T05:12:20;4.17;;;1.70;;
4686;SDS011;2357;47.316;-1.348;2023-05-16T05:14:46;5.73;;;1.80;;
4686;SDS011;2357;47.316;-1.348;2023-05-16T05:17:11;8.13;;;2.10;;
4686;SDS011;2357;47.316;-1.348;2023-05-16T05:19:37;5.17;;;2.40;;
4686;SDS011;2357;47.316;-1.348;2023-05-16T05:22:03;2.73;;;1.70;;
4686;SDS011;2357;47.316;-1.348;2023-05-16T05:24:28;3.83;;;1.70;;
4686;SDS011;2357;47.316;-1.348;2023-05-16T05:26:54;10.13;;;2.47;;
4686;SDS011;2357;47.316;-1.348;2023-05-16T05:29:20;11.40;;;2.20;;
4686;SDS011;2357;47.316;-1.348;2023-05-16T05:31:46;5.53;;;2.00;;
4686;SDS011;2357;47.316;-1.348;2023-05-16T05:34:12;3.93;;;1.67;;
4686;SDS011;2357;47.316;-1.348;2023-05-16T05:36:37;9.73;;;3.40;;
4686;SDS011;2357;47.316;-1.348;2023-05-16T05:39:03;14.80;;;2.37;;
4686;SDS011;2357;47.316;-1.348;2023-05-16T05:41:29;8.67;;;2.63;;
4686;SDS011;2357;47.316;-1.348;2023-05-16T05:43:54;6.33;;;1.93;;
4686;SDS011;2357;47.316;-1.348;2023-05-16T05:46:20;4.60;;;2.20;;
4686;SDS011;2357;47.316;-1.348;2023-05-16T05:48:46;4.23;;;2.20;;
4686;SDS011;2357;47.316;-1.348;2023-05-16T05:51:12;5.00;;;2.03;;
4686;SDS011;2357;47.316;-1.348;2023-05-16T05:53:38;4.97;;;1.93;;
4686;SDS011;2357;47.316;-1.348;2023-05-16T05:56:05;4.97;;;1.60;;
4686;SDS011;2357;47.316;-1.348;2023-05-16T05:58:30;2.70;;;1.40;;
4686;SDS011;2357;47.316;-1.348;2023-05-16T06:00:56;7.37;;;2.10;;
4686;SDS011;2357;47.316;-1.348;2023-05-16T06:03:22;2.00;;;1.77;;
4686;SDS011;2357;47.316;-1.348;2023-05-16T06:05:47;7.60;;;1.87;;
4686;SDS011;2357;47.316;-1.348;2023-05-16T06:08:13;3.00;;;2.23;;
4686;SDS011;2357;47.316;-1.348;2023-05-16T06:10:39;4.77;;;1.60;;
4686;SDS011;2357;47.316;-1.348;2023-05-16T06:13:04;4.17;;;1.90;;
4686;SDS011;2357;47.316;-1.348;2023-05-16T06:15:30;3.50;;;1.50;;
4686;SDS011;2357;47.316;-1.348;2023-05-16T06:17:56;9.10;;;1.93;;
4686;SDS011;2357;47.316;-1.348;2023-05-16T06:20:22;8.30;;;2.30;;
4686;SDS011;2357;47.316;-1.348;2023-05-16T06:22:47;3.27;;;1.50;;
4686;SDS011;2357;47.316;-1.348;2023-05-16T06:25:13;6.63;;;1.87;;
4686;SDS011;2357;47.316;-1.348;2023-05-16T06:27:39;6.93;;;2.17;;
4686;SDS011;2357;47.316;-1.348;2023-05-16T06:30:05;5.20;;;2.03;;
4686;SDS011;2357;47.316;-1.348;2023-05-16T06:32:31;6.00;;;1.83;;
4686;SDS011;2357;47.316;-1.348;2023-05-16T06:34:56;4.27;;;1.73;;
4686;SDS011;2357;47.316;-1.348;2023-05-16T06:37:22;1.90;;;1.77;;
4686;SDS011;2357;47.316;-1.348;2023-05-16T06:39:48;4.37;;;1.47;;
4686;SDS011;2357;47.316;-1.348;2023-05-16T06:42:14;6.10;;;1.63;;
4686;SDS011;2357;47.316;-1.348;2023-05-16T06:44:39;4.27;;;2.33;;
4686;SDS011;2357;47.316;-1.348;2023-05-16T06:47:05;8.13;;;1.70;;
4686;SDS011;2357;47.316;-1.348;2023-05-16T06:49:31;6.37;;;1.90;;
4686;SDS011;2357;47.316;-1.348;2023-05-16T06:51:57;24.37;;;3.60;;
4686;SDS011;2357;47.316;-1.348;2023-05-16T06:54:23;4.23;;;1.63;;
4686;SDS011;2357;47.316;-1.348;2023-05-16T06:56:49;4.07;;;1.70;;
4686;SDS011;2357;47.316;-1.348;2023-05-16T06:59:15;5.77;;;1.80;;
4686;SDS011;2357;47.316;-1.348;2023-05-16T07:01:41;4.97;;;1.80;;
4686;SDS011;2357;47.316;-1.348;2023-05-16T07:04:06;15.57;;;2.60;;
4686;SDS011;2357;47.316;-1.348;2023-05-16T07:06:32;3.73;;;1.90;;
4686;SDS011;2357;47.316;-1.348;2023-05-16T07:08:58;3.80;;;1.53;;
4686;SDS011;2357;47.316;-1.348;2023-05-16T07:11:23;5.70;;;1.40;;
4686;SDS011;2357;47.316;-1.348;2023-05-16T07:13:49;2.80;;;1.10;;
4686;SDS011;2357;47.316;-1.348;2023-05-16T07:16:15;7.80;;;2.10;;
4686;SDS011;2357;47.316;-1.348;2023-05-16T07:18:40;6.60;;;1.40;;
4686;SDS011;2357;47.316;-1.348;2023-05-16T07:21:06;11.47;;;1.80;;
4686;SDS011;2357;47.316;-1.348;2023-05-16T07:23:32;4.23;;;1.53;;
4686;SDS011;2357;47.316;-1.348;2023-05-16T07:25:57;11.77;;;1.43;;
4686;SDS011;2357;47.316;-1.348;2023-05-16T07:28:23;7.67;;;1.70;;
4686;SDS011;2357;47.316;-1.348;2023-05-16T07:30:49;5.50;;;2.30;;
4686;SDS011;2357;47.316;-1.348;2023-05-16T07:33:14;5.33;;;1.83;;
4686;SDS011;2357;47.316;-1.348;2023-05-16T07:35:40;4.53;;;1.53;;
4686;SDS011;2357;47.316;-1.348;2023-05-16T07:38:06;5.40;;;1.73;;
4686;SDS011;2357;47.316;-1.348;2023-05-16T07:40:31;8.30;;;1.97;;
4686;SDS011;2357;47.316;-1.348;2023-05-16T07:42:57;11.43;;;1.53;;
4686;SDS011;2357;47.316;-1.348;2023-05-16T07:45:23;9.87;;;1.30;;
4686;SDS011;2357;47.316;-1.348;2023-05-16T07:47:49;11.90;;;2.60;;
4686;SDS011;2357;47.316;-1.348;2023-05-16T07:50:15;8.17;;;1.40;;
4686;SDS011;2357;47.316;-1.348;2023-05-16T07:52:40;6.17;;;1.27;;
4686;SDS011;2357;47.316;-1.348;2023-05-16T07:55:06;3.07;;;1.30;;
4686;SDS011;2357;47.316;-1.348;2023-05-16T07:57:32;3.73;;;2.13;;
4686;SDS011;2357;47.316;-1.348;2023-05-16T07:59:57;6.80;;;1.20;;
4686;SDS011;2357;47.316;-1.348;2023-05-16T08:02:23;4.10;;;1.20;;
4686;SDS011;2357;47.316;-1.348;2023-05-16T08:04:50;8.70;;;2.00;;
4686;SDS011;2357;47.316;-1.348;2023-05-16T08:07:16;10.70;;;1.63;;
4686;SDS011;2357;47.316;-1.348;2023-05-16T08:09:41;5.50;;;1.50;;
4686;SDS011;2357;47.316;-1.348;2023-05-16T08:12:07;3.27;;;0.90;;
4686;SDS011;2357;47.316;-1.348;2023-05-16T08:14:33;3.03;;;0.90;;
4686;SDS011;2357;47.316;-1.348;2023-05-16T08:16:59;5.30;;;1.17;;
4686;SDS011;2357;47.316;-1.348;2023-05-16T08:19:25;5.50;;;1.30;;
4686;SDS011;2357;47.316;-1.348;2023-05-16T08:21:51;3.20;;;1.10;;
4686;SDS011;2357;47.316;-1.348;2023-05-16T08:24:17;9.77;;;1.30;;
4686;SDS011;2357;47.316;-1.348;2023-05-16T08:26:42;2.23;;;1.10;;
4686;SDS011;2357;47.316;-1.348;2023-05-16T08:29:08;2.80;;;0.90;;
4686;SDS011;2357;47.316;-1.348;2023-05-16T08:31:34;2.93;;;1.33;;
4686;SDS011;2357;47.316;-1.348;2023-05-16T08:33:59;0.83;;;0.80;;
4686;SDS011;2357;47.316;-1.348;2023-05-16T08:36:26;4.27;;;2.27;;
4686;SDS011;2357;47.316;-1.348;2023-05-16T08:38:52;4.30;;;1.40;;
4686;SDS011;2357;47.316;-1.348;2023-05-16T08:41:18;3.40;;;0.80;;
4686;SDS011;2357;47.316;-1.348;2023-05-16T08:43:44;2.70;;;1.10;;
4686;SDS011;2357;47.316;-1.348;2023-05-16T08:46:09;3.40;;;1.47;;
4686;SDS011;2357;47.316;-1.348;2023-05-16T08:48:35;3.23;;;1.80;;
4686;SDS011;2357;47.316;-1.348;2023-05-16T08:51:05;3.87;;;1.63;;
4686;SDS011;2357;47.316;-1.348;2023-05-16T08:53:38;0.70;;;0.70;;
4686;SDS011;2357;47.316;-1.348;2023-05-16T08:56:09;1.27;;;0.90;;
4686;SDS011;2357;47.316;-1.348;2023-05-16T08:58:36;2.77;;;1.10;;
4686;SDS011;2357;47.316;-1.348;2023-05-16T09:01:03;4.50;;;1.00;;
4686;SDS011;2357;47.316;-1.348;2023-05-16T09:03:33;3.70;;;0.87;;
4686;SDS011;2357;47.316;-1.348;2023-05-16T09:06:05;4.27;;;1.10;;
4686;SDS011;2357;47.316;-1.348;2023-05-16T09:08:31;1.53;;;0.70;;
4686;SDS011;2357;47.316;-1.348;2023-05-16T09:10:57;2.30;;;0.90;;
4686;SDS011;2357;47.316;-1.348;2023-05-16T09:13:23;6.10;;;0.80;;
4686;SDS011;2357;47.316;-1.348;2023-05-16T09:18:38;6.00;;;0.80;;
4686;SDS011;2357;47.316;-1.348;2023-05-16T09:21:04;3.60;;;0.80;;
4686;SDS011;2357;47.316;-1.348;2023-05-16T09:23:31;3.50;;;0.83;;
4686;SDS011;2357;47.316;-1.348;2023-05-16T09:25:57;5.60;;;0.90;;
4686;SDS011;2357;47.316;-1.348;2023-05-16T09:28:24;7.47;;;1.33;;
4686;SDS011;2357;47.316;-1.348;2023-05-16T09:30:51;1.70;;;1.00;;
4686;SDS011;2357;47.316;-1.348;2023-05-16T09:33:21;9.80;;;1.00;;
4686;SDS011;2357;47.316;-1.348;2023-05-16T09:35:53;5.43;;;0.90;;
4686;SDS011;2357;47.316;-1.348;2023-05-16T09:38:26;5.80;;;0.80;;
4686;SDS011;2357;47.316;-1.348;2023-05-16T09:40:53;4.43;;;1.27;;
4686;SDS011;2357;47.316;-1.348;2023-05-16T09:43:21;8.67;;;1.47;;
4686;SDS011;2357;47.316;-1.348;2023-05-16T09:45:51;3.67;;;0.80;;
4686;SDS011;2357;47.316;-1.348;2023-05-16T09:48:18;4.37;;;1.70;;
4686;SDS011;2357;47.316;-1.348;2023-05-16T09:50:46;4.97;;;1.33;;
4686;SDS011;2357;47.316;-1.348;2023-05-16T09:53:15;4.17;;;1.30;;
4686;SDS011;2357;47.316;-1.348;2023-05-16T09:55:40;1.93;;;0.83;;
4686;SDS011;2357;47.316;-1.348;2023-05-16T09:58:06;3.17;;;1.10;;
4686;SDS011;2357;47.316;-1.348;2023-05-16T10:00:32;3.37;;;0.70;;
4686;SDS011;2357;47.316;-1.348;2023-05-16T10:02:58;2.20;;;1.17;;
4686;SDS011;2357;47.316;-1.348;2023-05-16T10:05:25;4.50;;;1.20;;
4686;SDS011;2357;47.316;-1.348;2023-05-16T10:07:55;4.10;;;1.40;;
4686;SDS011;2357;47.316;-1.348;2023-05-16T10:10:21;3.23;;;1.10;;
4686;SDS011;2357;47.316;-1.348;2023-05-16T10:12:49;0.80;;;0.80;;
4686;SDS011;2357;47.316;-1.348;2023-05-16T10:15:15;1.43;;;0.80;;
4686;SDS011;2357;47.316;-1.348;2023-05-16T10:17:42;2.10;;;0.90;;
4686;SDS011;2357;47.316;-1.348;2023-05-16T10:20:10;3.27;;;0.83;;
4686;SDS011;2357;47.316;-1.348;2023-05-16T10:22:39;2.83;;;0.80;;
4686;SDS011;2357;47.316;-1.348;2023-05-16T10:25:11;5.80;;;1.10;;
4686;SDS011;2357;47.316;-1.348;2023-05-16T10:28:05;2.70;;;0.80;;
4686;SDS011;2357;47.316;-1.348;2023-05-16T10:30:32;0.70;;;0.60;;
4686;SDS011;2357;47.316;-1.348;2023-05-16T10:32:58;3.40;;;1.07;;
4686;SDS011;2357;47.316;-1.348;2023-05-16T10:35:26;1.10;;;0.80;;
4686;SDS011;2357;47.316;-1.348;2023-05-16T10:37:51;3.00;;;0.70;;
4686;SDS011;2357;47.316;-1.348;2023-05-16T10:40:18;1.73;;;1.03;;
4686;SDS011;2357;47.316;-1.348;2023-05-16T10:42:58;1.00;;;0.80;;
4686;SDS011;2357;47.316;-1.348;2023-05-16T10:45:25;6.03;;;1.00;;
4686;SDS011;2357;47.316;-1.348;2023-05-16T10:48:03;3.67;;;1.67;;
4686;SDS011;2357;47.316;-1.348;2023-05-16T10:50:40;1.63;;;0.80;;
4686;SDS011;2357;47.316;-1.348;2023-05-16T10:56:03;5.50;;;1.10;;
4686;SDS011;2357;47.316;-1.348;2023-05-16T11:01:15;3.60;;;0.80;;
4686;SDS011;2357;47.316;-1.348;2023-05-16T11:06:32;1.40;;;0.90;;
4686;SDS011;2357;47.316;-1.348;2023-05-16T11:14:04;1.90;;;0.83;;
4686;SDS011;2357;47.316;-1.348;2023-05-16T11:16:29;1.00;;;0.60;;
4686;SDS011;2357;47.316;-1.348;2023-05-16T11:19:03;2.97;;;0.70;;
4686;SDS011;2357;47.316;-1.348;2023-05-16T11:24:34;0.63;;;0.63;;
4686;SDS011;2357;47.316;-1.348;2023-05-16T11:27:01;2.53;;;1.10;;
4686;SDS011;2357;47.316;-1.348;2023-05-16T11:29:29;8.00;;;0.83;;
4686;SDS011;2357;47.316;-1.348;2023-05-16T11:32:00;0.97;;;0.77;;
4686;SDS011;2357;47.316;-1.348;2023-05-16T11:34:28;2.87;;;0.70;;
4686;SDS011;2357;47.316;-1.348;2023-05-16T11:36:56;1.57;;;0.80;;
4686;SDS011;2357;47.316;-1.348;2023-05-16T11:39:22;2.20;;;0.70;;
4686;SDS011;2357;47.316;-1.348;2023-05-16T11:41:52;0.60;;;0.60;;
4686;SDS011;2357;47.316;-1.348;2023-05-16T11:44:17;1.93;;;0.60;;
4686;SDS011;2357;47.316;-1.348;2023-05-16T11:46:43;2.33;;;0.57;;
4686;SDS011;2357;47.316;-1.348;2023-05-16T11:49:10;0.60;;;0.60;;
4686;SDS011;2357;47.316;-1.348;2023-05-16T11:51:40;1.17;;;0.50;;
4686;SDS011;2357;47.316;-1.348;2023-05-16T11:54:10;2.00;;;0.77;;
4686;SDS011;2357;47.316;-1.348;2023-05-16T11:56:37;1.83;;;0.50;;
4686;SDS011;2357;47.316;-1.348;2023-05-16T11:59:03;0.60;;;0.60;;
4686;SDS011;2357;47.316;-1.348;2023-05-16T12:01:33;2.97;;;1.33;;
4686;SDS011;2357;47.316;-1.348;2023-05-16T12:03:59;9.87;;;0.80;;
4686;SDS011;2357;47.316;-1.348;2023-05-16T12:06:25;0.70;;;0.70;;
4686;SDS011;2357;47.316;-1.348;2023-05-16T12:08:53;2.33;;;0.70;;
4686;SDS011;2357;47.316;-1.348;2023-05-16T12:11:19;5.63;;;0.70;;
4686;SDS011;2357;47.316;-1.348;2023-05-16T12:13:46;2.50;;;0.77;;
4686;SDS011;2357;47.316;-1.348;2023-05-16T12:16:12;2.77;;;0.63;;
4686;SDS011;2357;47.316;-1.348;2023-05-16T12:18:38;1.70;;;0.60;;
4686;SDS011;2357;47.316;-1.348;2023-05-16T12:21:04;1.83;;;0.83;;
4686;SDS011;2357;47.316;-1.348;2023-05-16T12:23:33;3.57;;;1.30;;
4686;SDS011;2357;47.316;-1.348;2023-05-16T12:25:59;0.87;;;0.87;;
4686;SDS011;2357;47.316;-1.348;2023-05-16T12:28:32;1.73;;;1.03;;
4686;SDS011;2357;47.316;-1.348;2023-05-16T12:30:59;4.50;;;1.10;;
4686;SDS011;2357;47.316;-1.348;2023-05-16T12:33:26;1.30;;;0.70;;
4686;SDS011;2357;47.316;-1.348;2023-05-16T12:35:51;3.20;;;0.70;;
4686;SDS011;2357;47.316;-1.348;2023-05-16T12:38:18;0.80;;;0.70;;
4686;SDS011;2357;47.316;-1.348;2023-05-16T12:40:45;1.80;;;0.77;;
4686;SDS011;2357;47.316;-1.348;2023-05-16T12:43:15;11.30;;;0.80;;
4686;SDS011;2357;47.316;-1.348;2023-05-16T12:45:50;2.00;;;0.90;;
4686;SDS011;2357;47.316;-1.348;2023-05-16T12:48:16;2.20;;;0.70;;
4686;SDS011;2357;47.316;-1.348;2023-05-16T12:50:42;0.70;;;0.70;;
4686;SDS011;2357;47.316;-1.348;2023-05-16T12:53:14;1.80;;;0.80;;
4686;SDS011;2357;47.316;-1.348;2023-05-16T12:55:41;4.60;;;0.87;;
4686;SDS011;2357;47.316;-1.348;2023-05-16T12:58:09;2.57;;;0.90;;
4686;SDS011;2357;47.316;-1.348;2023-05-16T13:00:35;1.80;;;1.20;;
4686;SDS011;2357;47.316;-1.348;2023-05-16T13:03:02;4.03;;;1.00;;
4686;SDS011;2357;47.316;-1.348;2023-05-16T13:05:28;1.93;;;0.90;;
4686;SDS011;2357;47.316;-1.348;2023-05-16T13:07:54;4.27;;;0.90;;
4686;SDS011;2357;47.316;-1.348;2023-05-16T13:10:20;1.17;;;0.70;;
4686;SDS011;2357;47.316;-1.348;2023-05-16T13:12:45;2.87;;;0.80;;
4686;SDS011;2357;47.316;-1.348;2023-05-16T13:15:11;3.60;;;0.63;;
4686;SDS011;2357;47.316;-1.348;2023-05-16T13:17:38;1.23;;;0.90;;
4686;SDS011;2357;47.316;-1.348;2023-05-16T13:20:05;0.67;;;0.60;;
4686;SDS011;2357;47.316;-1.348;2023-05-16T13:22:40;0.80;;;0.80;;
4686;SDS011;2357;47.316;-1.348;2023-05-16T13:25:07;3.67;;;0.70;;
4686;SDS011;2357;47.316;-1.348;2023-05-16T13:27:33;0.63;;;0.63;;
4686;SDS011;2357;47.316;-1.348;2023-05-16T13:29:59;2.97;;;0.70;;
4686;SDS011;2357;47.316;-1.348;2023-05-16T13:32:24;1.80;;;0.90;;
4686;SDS011;2357;47.316;-1.348;2023-05-16T13:34:50;3.60;;;0.73;;
4686;SDS011;2357;47.316;-1.348;2023-05-16T13:37:16;5.23;;;1.23;;
4686;SDS011;2357;47.316;-1.348;2023-05-16T13:39:42;1.13;;;0.70;;
4686;SDS011;2357;47.316;-1.348;2023-05-16T13:42:08;3.40;;;1.20;;
4686;SDS011;2357;47.316;-1.348;2023-05-16T13:44:34;2.63;;;1.00;;
4686;SDS011;2357;47.316;-1.348;2023-05-16T13:46:59;1.97;;;1.00;;
4686;SDS011;2357;47.316;-1.348;2023-05-16T13:49:25;8.53;;;1.27;;
4686;SDS011;2357;47.316;-1.348;2023-05-16T13:51:51;1.00;;;0.60;;
4686;SDS011;2357;47.316;-1.348;2023-05-16T13:54:18;1.73;;;0.77;;
4686;SDS011;2357;47.316;-1.348;2023-05-16T13:56:45;0.80;;;0.80;;
4686;SDS011;2357;47.316;-1.348;2023-05-16T13:59:11;1.97;;;0.80;;
4686;SDS011;2357;47.316;-1.348;2023-05-16T14:01:37;1.50;;;0.90;;
4686;SDS011;2357;47.316;-1.348;2023-05-16T14:04:02;1.40;;;0.70;;
4686;SDS011;2357;47.316;-1.348;2023-05-16T14:06:28;1.47;;;0.90;;
4686;SDS011;2357;47.316;-1.348;2023-05-16T14:08:55;1.27;;;0.97;;
4686;SDS011;2357;47.316;-1.348;2023-05-16T14:11:20;12.37;;;1.00;;
4686;SDS011;2357;47.316;-1.348;2023-05-16T14:13:50;4.93;;;1.20;;
4686;SDS011;2357;47.316;-1.348;2023-05-16T14:16:16;0.97;;;0.83;;
4686;SDS011;2357;47.316;-1.348;2023-05-16T14:18:42;1.80;;;0.83;;
4686;SDS011;2357;47.316;-1.348;2023-05-16T14:21:09;3.80;;;1.00;;
4686;SDS011;2357;47.316;-1.348;2023-05-16T14:23:35;3.07;;;1.37;;
4686;SDS011;2357;47.316;-1.348;2023-05-16T14:26:01;3.70;;;0.90;;
4686;SDS011;2357;47.316;-1.348;2023-05-16T14:28:26;2.87;;;1.13;;
4686;SDS011;2357;47.316;-1.348;2023-05-16T14:30:52;2.87;;;1.20;;
4686;SDS011;2357;47.316;-1.348;2023-05-16T14:33:18;0.80;;;0.70;;
4686;SDS011;2357;47.316;-1.348;2023-05-16T14:35:44;0.73;;;0.73;;
4686;SDS011;2357;47.316;-1.348;2023-05-16T14:38:10;2.10;;;0.90;;
4686;SDS011;2357;47.316;-1.348;2023-05-16T14:40:35;1.23;;;0.70;;
4686;SDS011;2357;47.316;-1.348;2023-05-16T14:43:01;1.67;;;0.93;;
4686;SDS011;2357;47.316;-1.348;2023-05-16T14:45:28;4.53;;;1.33;;
4686;SDS011;2357;47.316;-1.348;2023-05-16T14:47:54;3.07;;;1.00;;
4686;SDS011;2357;47.316;-1.348;2023-05-16T14:50:20;3.70;;;1.43;;
4686;SDS011;2357;47.316;-1.348;2023-05-16T14:52:45;3.27;;;1.20;;
4686;SDS011;2357;47.316;-1.348;2023-05-16T14:55:11;2.40;;;0.90;;
4686;SDS011;2357;47.316;-1.348;2023-05-16T14:57:37;4.47;;;1.17;;
4686;SDS011;2357;47.316;-1.348;2023-05-16T15:00:02;5.40;;;1.73;;
4686;SDS011;2357;47.316;-1.348;2023-05-16T15:02:29;3.90;;;1.03;;
4686;SDS011;2357;47.316;-1.348;2023-05-16T15:04:55;7.40;;;1.57;;
4686;SDS011;2357;47.316;-1.348;2023-05-16T15:07:21;1.47;;;1.07;;
4686;SDS011;2357;47.316;-1.348;2023-05-16T15:09:46;3.23;;;1.57;;
4686;SDS011;2357;47.316;-1.348;2023-05-16T15:12:12;0.87;;;0.70;;
4686;SDS011;2357;47.316;-1.348;2023-05-16T15:14:38;2.63;;;1.07;;
4686;SDS011;2357;47.316;-1.348;2023-05-16T15:17:03;3.50;;;1.20;;
4686;SDS011;2357;47.316;-1.348;2023-05-16T15:19:29;1.20;;;1.10;;
4686;SDS011;2357;47.316;-1.348;2023-05-16T15:21:55;2.33;;;0.90;;
4686;SDS011;2357;47.316;-1.348;2023-05-16T15:24:20;3.17;;;1.20;;
4686;SDS011;2357;47.316;-1.348;2023-05-16T15:26:46;2.50;;;1.10;;
4686;SDS011;2357;47.316;-1.348;2023-05-16T15:29:12;2.50;;;1.40;;
4686;SDS011;2357;47.316;-1.348;2023-05-16T15:31:37;1.80;;;1.30;;